sensor_id;sensor_type;location;lat;lon;timestamp;pressure;altitude;pressure_sealevel;temperature;humidity
62655;BME280;48717;55.556;37.816;2022-07-22T00:01:56;98926.72;;;15.87;76.78
62655;BME280;48717;55.556;37.816;2022-07-22T00:04:23;98938.78;;;15.98;76.58
62655;BME280;48717;55.556;37.816;2022-07-22T00:06:51;98887.72;;;15.64;77.11
62655;BME280;48717;55.556;37.816;2022-07-22T00:09:18;98914.41;;;15.85;76.48
62655;BME280;48717;55.556;37.816;2022-07-22T00:11:45;98911.00;;;15.81;76.97
62655;BME280;48717;55.556;37.816;2022-07-22T00:14:12;98924.19;;;15.84;77.08
62655;BME280;48717;55.556;37.816;2022-07-22T00:16:40;98946.75;;;15.98;76.82
62655;BME280;48717;55.556;37.816;2022-07-22T00:19:07;98926.59;;;15.90;76.89
62655;BME280;48717;55.556;37.816;2022-07-22T00:21:34;98910.16;;;15.81;76.93
62655;BME280;48717;55.556;37.816;2022-07-22T00:24:02;98932.84;;;15.89;77.25
62655;BME280;48717;55.556;37.816;2022-07-22T00:26:31;98920.97;;;15.74;77.68
62655;BME280;48717;55.556;37.816;2022-07-22T00:28:58;98942.50;;;15.92;77.55
62655;BME280;48717;55.556;37.816;2022-07-22T00:31:27;98933.78;;;15.88;77.88
62655;BME280;48717;55.556;37.816;2022-07-22T00:33:54;98941.53;;;15.95;77.88
62655;BME280;48717;55.556;37.816;2022-07-22T00:36:21;98946.84;;;15.95;78.27
62655;BME280;48717;55.556;37.816;2022-07-22T00:38:49;98927.72;;;15.85;78.08
62655;BME280;48717;55.556;37.816;2022-07-22T00:41:16;98921.56;;;15.83;78.07
62655;BME280;48717;55.556;37.816;2022-07-22T00:46:16;98934.66;;;15.89;78.20
62655;BME280;48717;55.556;37.816;2022-07-22T00:48:43;98957.34;;;15.99;78.19
62655;BME280;48717;55.556;37.816;2022-07-22T00:51:11;98938.03;;;15.94;78.26
62655;BME280;48717;55.556;37.816;2022-07-22T00:53:38;98952.13;;;15.96;78.23
62655;BME280;48717;55.556;37.816;2022-07-22T00:56:06;98934.13;;;15.79;78.73
62655;BME280;48717;55.556;37.816;2022-07-22T00:58:33;98953.31;;;15.87;78.53
62655;BME280;48717;55.556;37.816;2022-07-22T01:01:00;98933.53;;;15.71;78.61
62655;BME280;48717;55.556;37.816;2022-07-22T01:03:27;98925.56;;;15.71;78.42
62655;BME280;48717;55.556;37.816;2022-07-22T01:05:54;98962.06;;;15.89;79.09
62655;BME280;48717;55.556;37.816;2022-07-22T01:08:21;98960.34;;;15.88;78.46
62655;BME280;48717;55.556;37.816;2022-07-22T01:10:49;98958.72;;;15.84;79.12
62655;BME280;48717;55.556;37.816;2022-07-22T01:13:16;98930.00;;;15.70;78.82
62655;BME280;48717;55.556;37.816;2022-07-22T01:15:44;98953.50;;;15.81;79.22
62655;BME280;48717;55.556;37.816;2022-07-22T01:18:12;98913.63;;;15.57;78.58
62655;BME280;48717;55.556;37.816;2022-07-22T01:20:39;98954.25;;;15.86;78.93
62655;BME280;48717;55.556;37.816;2022-07-22T01:23:07;98932.59;;;15.72;79.53
62655;BME280;48717;55.556;37.816;2022-07-22T01:25:34;98978.25;;;15.83;78.66
62655;BME280;48717;55.556;37.816;2022-07-22T01:28:01;98964.16;;;15.81;78.95
62655;BME280;48717;55.556;37.816;2022-07-22T01:30:28;98970.50;;;15.77;79.25
62655;BME280;48717;55.556;37.816;2022-07-22T01:32:55;98956.16;;;15.57;79.71
62655;BME280;48717;55.556;37.816;2022-07-22T01:35:23;98944.13;;;15.47;80.39
62655;BME280;48717;55.556;37.816;2022-07-22T01:37:50;98943.28;;;15.45;80.16
62655;BME280;48717;55.556;37.816;2022-07-22T01:40:17;98945.94;;;15.45;79.98
62655;BME280;48717;55.556;37.816;2022-07-22T01:42:46;98965.06;;;15.56;80.59
62655;BME280;48717;55.556;37.816;2022-07-22T01:45:13;98960.75;;;15.52;80.80
62655;BME280;48717;55.556;37.816;2022-07-22T01:47:40;98973.72;;;15.61;81.24
62655;BME280;48717;55.556;37.816;2022-07-22T01:50:10;98981.69;;;15.61;80.51
62655;BME280;48717;55.556;37.816;2022-07-22T01:52:39;98968.56;;;15.57;80.85
62655;BME280;48717;55.556;37.816;2022-07-22T01:55:08;98976.47;;;15.58;81.01
62655;BME280;48717;55.556;37.816;2022-07-22T01:57:36;98973.72;;;15.61;80.62
62655;BME280;48717;55.556;37.816;2022-07-22T02:00:14;98973.03;;;15.56;80.86
62655;BME280;48717;55.556;37.816;2022-07-22T02:02:44;98945.16;;;15.43;80.79
62655;BME280;48717;55.556;37.816;2022-07-22T02:05:12;98976.31;;;15.63;81.50
62655;BME280;48717;55.556;37.816;2022-07-22T02:07:39;98970.13;;;15.62;81.34
62655;BME280;48717;55.556;37.816;2022-07-22T02:10:07;98965.78;;;15.60;81.20
62655;BME280;48717;55.556;37.816;2022-07-22T02:12:35;98970.03;;;15.65;81.12
62655;BME280;48717;55.556;37.816;2022-07-22T02:15:23;98953.44;;;15.59;81.37
62655;BME280;48717;55.556;37.816;2022-07-22T02:17:50;98984.72;;;15.76;80.43
62655;BME280;48717;55.556;37.816;2022-07-22T02:20:17;98948.19;;;15.57;80.18
62655;BME280;48717;55.556;37.816;2022-07-22T02:22:45;98965.56;;;15.66;79.69
62655;BME280;48717;55.556;37.816;2022-07-22T02:25:12;99007.22;;;15.91;80.05
62655;BME280;48717;55.556;37.816;2022-07-22T02:27:40;99004.50;;;15.92;79.46
62655;BME280;48717;55.556;37.816;2022-07-22T02:30:08;99010.84;;;15.88;79.70
62655;BME280;48717;55.556;37.816;2022-07-22T02:32:36;99012.47;;;15.94;79.36
62655;BME280;48717;55.556;37.816;2022-07-22T02:35:03;98985.53;;;15.78;79.29
62655;BME280;48717;55.556;37.816;2022-07-22T02:37:31;99009.63;;;15.99;79.36
62655;BME280;48717;55.556;37.816;2022-07-22T02:39:59;98952.13;;;15.71;79.09
62655;BME280;48717;55.556;37.816;2022-07-22T02:42:28;99013.75;;;16.08;78.31
62655;BME280;48717;55.556;37.816;2022-07-22T02:44:55;99004.94;;;16.05;78.22
62655;BME280;48717;55.556;37.816;2022-07-22T02:47:23;99021.16;;;16.23;77.68
62655;BME280;48717;55.556;37.816;2022-07-22T02:49:50;99026.31;;;16.28;77.65
62655;BME280;48717;55.556;37.816;2022-07-22T02:52:18;98989.81;;;16.08;77.46
62655;BME280;48717;55.556;37.816;2022-07-22T02:54:45;99031.63;;;16.28;77.38
62655;BME280;48717;55.556;37.816;2022-07-22T02:57:12;99035.28;;;16.25;77.38
62655;BME280;48717;55.556;37.816;2022-07-22T02:59:40;99027.28;;;16.25;77.41
62655;BME280;48717;55.556;37.816;2022-07-22T03:02:07;99037.94;;;16.25;77.46
62655;BME280;48717;55.556;37.816;2022-07-22T03:04:34;99033.47;;;16.26;77.64
62655;BME280;48717;55.556;37.816;2022-07-22T03:07:02;98999.81;;;16.01;77.12
62655;BME280;48717;55.556;37.816;2022-07-22T03:09:30;98995.28;;;16.03;77.52
62655;BME280;48717;55.556;37.816;2022-07-22T03:11:57;99041.69;;;16.20;77.73
62655;BME280;48717;55.556;37.816;2022-07-22T03:14:25;99023.31;;;16.13;77.55
62655;BME280;48717;55.556;37.816;2022-07-22T03:16:53;99003.41;;;16.00;77.61
62655;BME280;48717;55.556;37.816;2022-07-22T03:19:21;99050.31;;;16.26;77.61
62655;BME280;48717;55.556;37.816;2022-07-22T03:21:50;99059.97;;;16.29;77.82
62655;BME280;48717;55.556;37.816;2022-07-22T03:24:17;99033.81;;;16.16;77.60
62655;BME280;48717;55.556;37.816;2022-07-22T03:26:45;99041.84;;;16.15;77.95
62655;BME280;48717;55.556;37.816;2022-07-22T03:29:13;99022.53;;;16.10;77.85
62655;BME280;48717;55.556;37.816;2022-07-22T03:31:40;99052.91;;;16.28;77.83
62655;BME280;48717;55.556;37.816;2022-07-22T03:34:08;99063.22;;;16.37;77.96
62655;BME280;48717;55.556;37.816;2022-07-22T03:36:38;99065.81;;;16.39;77.90
62655;BME280;48717;55.556;37.816;2022-07-22T03:39:07;99045.16;;;16.22;77.68
62655;BME280;48717;55.556;37.816;2022-07-22T03:41:34;99042.63;;;16.18;77.56
62655;BME280;48717;55.556;37.816;2022-07-22T03:44:02;99069.47;;;16.36;77.63
62655;BME280;48717;55.556;37.816;2022-07-22T03:46:29;99078.81;;;16.47;77.85
62655;BME280;48717;55.556;37.816;2022-07-22T03:48:57;99091.09;;;16.51;77.58
62655;BME280;48717;55.556;37.816;2022-07-22T03:51:25;99085.78;;;16.51;76.83
62655;BME280;48717;55.556;37.816;2022-07-22T03:53:59;99059.50;;;16.41;77.18
62655;BME280;48717;55.556;37.816;2022-07-22T03:56:27;99064.47;;;16.51;76.89
62655;BME280;48717;55.556;37.816;2022-07-22T03:58:54;99093.97;;;16.68;77.22
62655;BME280;48717;55.556;37.816;2022-07-22T04:01:21;99057.19;;;16.56;76.61
62655;BME280;48717;55.556;37.816;2022-07-22T04:03:49;99069.16;;;16.68;76.29
62655;BME280;48717;55.556;37.816;2022-07-22T04:06:32;99095.03;;;16.88;76.46
62655;BME280;48717;55.556;37.816;2022-07-22T04:09:06;99071.34;;;16.80;75.58
62655;BME280;48717;55.556;37.816;2022-07-22T04:11:34;99090.25;;;16.96;75.43
62655;BME280;48717;55.556;37.816;2022-07-22T04:14:01;99080.78;;;16.89;74.95
62655;BME280;48717;55.556;37.816;2022-07-22T04:16:29;99057.97;;;16.82;75.29
62655;BME280;48717;55.556;37.816;2022-07-22T04:19:05;99077.75;;;16.99;75.32
62655;BME280;48717;55.556;37.816;2022-07-22T04:21:59;99084.94;;;17.20;74.22
62655;BME280;48717;55.556;37.816;2022-07-22T04:24:28;99088.16;;;17.29;74.56
62655;BME280;48717;55.556;37.816;2022-07-22T04:26:56;99078.97;;;17.36;73.41
62655;BME280;48717;55.556;37.816;2022-07-22T04:29:24;99088.78;;;17.35;73.24
62655;BME280;48717;55.556;37.816;2022-07-22T04:31:52;99090.22;;;17.43;72.96
62655;BME280;48717;55.556;37.816;2022-07-22T04:34:25;99065.25;;;17.45;72.68
62655;BME280;48717;55.556;37.816;2022-07-22T04:36:54;99063.81;;;17.59;71.45
62655;BME280;48717;55.556;37.816;2022-07-22T04:39:21;99069.03;;;17.83;70.89
62655;BME280;48717;55.556;37.816;2022-07-22T04:41:54;99099.25;;;18.25;69.20
62655;BME280;48717;55.556;37.816;2022-07-22T04:44:23;99087.88;;;18.40;68.51
62655;BME280;48717;55.556;37.816;2022-07-22T04:46:50;99098.72;;;18.57;67.83
62655;BME280;48717;55.556;37.816;2022-07-22T04:49:17;99071.63;;;18.66;67.12
62655;BME280;48717;55.556;37.816;2022-07-22T04:51:44;99076.84;;;19.08;65.60
62655;BME280;48717;55.556;37.816;2022-07-22T04:54:22;99025.13;;;19.09;63.77
62655;BME280;48717;55.556;37.816;2022-07-22T04:56:53;99104.94;;;19.89;62.50
62655;BME280;48717;55.556;37.816;2022-07-22T04:59:21;99087.25;;;20.04;61.88
62655;BME280;48717;55.556;37.816;2022-07-22T05:01:50;99093.94;;;20.30;60.51
62655;BME280;48717;55.556;37.816;2022-07-22T05:04:17;99081.44;;;20.47;60.07
62655;BME280;48717;55.556;37.816;2022-07-22T05:06:45;99104.94;;;20.92;57.60
62655;BME280;48717;55.556;37.816;2022-07-22T05:09:12;99092.09;;;20.65;58.73
62655;BME280;48717;55.556;37.816;2022-07-22T05:11:40;99080.16;;;21.04;57.68
62655;BME280;48717;55.556;37.816;2022-07-22T05:14:07;99121.00;;;21.56;56.37
62655;BME280;48717;55.556;37.816;2022-07-22T05:16:37;99095.06;;;21.73;55.79
62655;BME280;48717;55.556;37.816;2022-07-22T05:19:05;99109.00;;;22.39;53.85
62655;BME280;48717;55.556;37.816;2022-07-22T05:21:36;99082.72;;;22.30;53.43
62655;BME280;48717;55.556;37.816;2022-07-22T05:24:06;99116.84;;;22.28;54.03
62655;BME280;48717;55.556;37.816;2022-07-22T05:26:34;99094.59;;;22.40;53.54
62655;BME280;48717;55.556;37.816;2022-07-22T05:29:01;99106.34;;;22.83;52.08
62655;BME280;48717;55.556;37.816;2022-07-22T05:31:29;99118.91;;;23.39;50.49
62655;BME280;48717;55.556;37.816;2022-07-22T05:33:56;99125.91;;;23.69;49.44
62655;BME280;48717;55.556;37.816;2022-07-22T05:36:30;99128.75;;;23.81;49.10
62655;BME280;48717;55.556;37.816;2022-07-22T05:38:57;99124.34;;;24.20;48.05
62655;BME280;48717;55.556;37.816;2022-07-22T05:41:25;99081.41;;;24.04;47.96
62655;BME280;48717;55.556;37.816;2022-07-22T05:43:52;99090.91;;;24.10;48.42
62655;BME280;48717;55.556;37.816;2022-07-22T05:46:19;99118.09;;;24.46;47.59
62655;BME280;48717;55.556;37.816;2022-07-22T05:48:47;99094.38;;;24.38;47.48
62655;BME280;48717;55.556;37.816;2022-07-22T05:51:15;99121.97;;;24.42;47.61
62655;BME280;48717;55.556;37.816;2022-07-22T05:53:43;99087.44;;;24.60;46.97
62655;BME280;48717;55.556;37.816;2022-07-22T05:56:11;99105.59;;;24.58;46.91
62655;BME280;48717;55.556;37.816;2022-07-22T05:58:40;99106.88;;;24.65;46.44
62655;BME280;48717;55.556;37.816;2022-07-22T06:01:11;99120.63;;;24.99;46.22
62655;BME280;48717;55.556;37.816;2022-07-22T06:03:38;99116.00;;;25.01;46.12
62655;BME280;48717;55.556;37.816;2022-07-22T06:06:06;99092.44;;;24.66;45.68
62655;BME280;48717;55.556;37.816;2022-07-22T06:08:36;99096.94;;;24.14;47.32
62655;BME280;48717;55.556;37.816;2022-07-22T06:11:06;99126.06;;;24.21;48.33
62655;BME280;48717;55.556;37.816;2022-07-22T06:13:33;99110.13;;;24.44;46.64
62655;BME280;48717;55.556;37.816;2022-07-22T06:16:01;99094.16;;;24.54;45.92
62655;BME280;48717;55.556;37.816;2022-07-22T06:18:29;99122.69;;;24.96;45.78
62655;BME280;48717;55.556;37.816;2022-07-22T06:20:57;99104.59;;;25.22;44.91
62655;BME280;48717;55.556;37.816;2022-07-22T06:23:25;99126.75;;;25.76;43.98
62655;BME280;48717;55.556;37.816;2022-07-22T06:25:52;99115.91;;;26.01;42.84
62655;BME280;48717;55.556;37.816;2022-07-22T06:28:25;99112.28;;;25.89;42.87
62655;BME280;48717;55.556;37.816;2022-07-22T06:30:52;99117.78;;;26.12;42.66
62655;BME280;48717;55.556;37.816;2022-07-22T06:33:21;99111.34;;;25.90;43.71
62655;BME280;48717;55.556;37.816;2022-07-22T06:35:49;99110.25;;;26.40;41.98
62655;BME280;48717;55.556;37.816;2022-07-22T06:38:16;99123.28;;;26.92;40.87
62655;BME280;48717;55.556;37.816;2022-07-22T06:41:17;99074.88;;;26.43;40.79
62655;BME280;48717;55.556;37.816;2022-07-22T06:44:00;99131.41;;;25.74;43.14
62655;BME280;48717;55.556;37.816;2022-07-22T06:46:41;99134.41;;;25.21;44.33
62655;BME280;48717;55.556;37.816;2022-07-22T06:49:10;99129.50;;;25.01;45.02
62655;BME280;48717;55.556;37.816;2022-07-22T06:51:40;99116.31;;;25.10;44.39
62655;BME280;48717;55.556;37.816;2022-07-22T06:54:08;99134.53;;;25.44;44.44
62655;BME280;48717;55.556;37.816;2022-07-22T06:56:35;99126.00;;;25.74;43.27
62655;BME280;48717;55.556;37.816;2022-07-22T06:59:04;99115.34;;;26.20;42.92
62655;BME280;48717;55.556;37.816;2022-07-22T07:01:31;99135.72;;;26.71;41.32
62655;BME280;48717;55.556;37.816;2022-07-22T07:04:00;99117.28;;;26.77;40.42
62655;BME280;48717;55.556;37.816;2022-07-22T07:06:28;99130.53;;;26.91;40.54
62655;BME280;48717;55.556;37.816;2022-07-22T07:09:12;99113.94;;;26.50;40.84
62655;BME280;48717;55.556;37.816;2022-07-22T07:11:42;99119.34;;;25.67;43.25
62655;BME280;48717;55.556;37.816;2022-07-22T07:14:25;99089.78;;;25.03;43.93
62655;BME280;48717;55.556;37.816;2022-07-22T07:16:52;99144.59;;;24.91;44.89
62655;BME280;48717;55.556;37.816;2022-07-22T07:19:20;99123.63;;;25.08;44.35
62655;BME280;48717;55.556;37.816;2022-07-22T07:21:47;99129.03;;;25.08;44.59
62655;BME280;48717;55.556;37.816;2022-07-22T07:24:16;99129.59;;;25.00;45.25
62655;BME280;48717;55.556;37.816;2022-07-22T07:26:44;99150.44;;;25.35;44.08
62655;BME280;48717;55.556;37.816;2022-07-22T07:29:11;99154.00;;;25.36;44.54
62655;BME280;48717;55.556;37.816;2022-07-22T07:31:41;99151.00;;;25.27;44.98
62655;BME280;48717;55.556;37.816;2022-07-22T07:34:13;99164.66;;;25.75;44.05
62655;BME280;48717;55.556;37.816;2022-07-22T07:36:40;99129.28;;;26.61;41.86
62655;BME280;48717;55.556;37.816;2022-07-22T07:39:09;99151.47;;;27.56;39.57
62655;BME280;48717;55.556;37.816;2022-07-22T07:41:36;99123.16;;;27.72;38.26
62655;BME280;48717;55.556;37.816;2022-07-22T07:44:03;99132.53;;;27.56;38.54
62655;BME280;48717;55.556;37.816;2022-07-22T07:46:32;99150.00;;;27.52;38.65
62655;BME280;48717;55.556;37.816;2022-07-22T07:49:00;99152.78;;;27.29;39.38
62655;BME280;48717;55.556;37.816;2022-07-22T07:51:28;99146.53;;;27.17;39.69
62655;BME280;48717;55.556;37.816;2022-07-22T07:53:56;99144.69;;;26.61;40.89
62655;BME280;48717;55.556;37.816;2022-07-22T07:56:23;99155.81;;;26.09;42.25
62655;BME280;48717;55.556;37.816;2022-07-22T07:58:51;99157.31;;;26.13;42.50
62655;BME280;48717;55.556;37.816;2022-07-22T08:01:39;99155.13;;;26.54;41.63
62655;BME280;48717;55.556;37.816;2022-07-22T08:04:25;99118.50;;;26.50;41.12
62655;BME280;48717;55.556;37.816;2022-07-22T08:07:09;99156.81;;;26.55;41.52
62655;BME280;48717;55.556;37.816;2022-07-22T08:09:39;99156.84;;;26.19;41.95
62655;BME280;48717;55.556;37.816;2022-07-22T08:12:15;99143.63;;;25.42;42.82
62655;BME280;48717;55.556;37.816;2022-07-22T08:15:11;99165.44;;;25.26;43.73
62655;BME280;48717;55.556;37.816;2022-07-22T08:17:50;99174.81;;;25.34;43.68
62655;BME280;48717;55.556;37.816;2022-07-22T08:20:20;99174.28;;;25.28;43.50
62655;BME280;48717;55.556;37.816;2022-07-22T08:22:49;99157.28;;;25.15;43.40
62655;BME280;48717;55.556;37.816;2022-07-22T08:25:17;99137.06;;;24.96;43.42
62655;BME280;48717;55.556;37.816;2022-07-22T08:27:45;99178.03;;;25.01;43.91
62655;BME280;48717;55.556;37.816;2022-07-22T08:30:13;99168.09;;;25.02;43.73
62655;BME280;48717;55.556;37.816;2022-07-22T08:32:40;99170.78;;;25.15;44.06
62655;BME280;48717;55.556;37.816;2022-07-22T08:35:08;99175.41;;;25.50;44.02
62655;BME280;48717;55.556;37.816;2022-07-22T08:37:36;99155.91;;;25.71;42.77
62655;BME280;48717;55.556;37.816;2022-07-22T08:40:06;99168.22;;;26.36;42.02
62655;BME280;48717;55.556;37.816;2022-07-22T08:42:39;99136.91;;;26.44;40.87
62655;BME280;48717;55.556;37.816;2022-07-22T08:45:07;99178.91;;;26.96;39.99
62655;BME280;48717;55.556;37.816;2022-07-22T08:47:45;99176.41;;;27.16;39.91
62655;BME280;48717;55.556;37.816;2022-07-22T08:50:37;99185.50;;;27.37;39.54
62655;BME280;48717;55.556;37.816;2022-07-22T08:53:12;99181.75;;;27.61;39.15
62655;BME280;48717;55.556;37.816;2022-07-22T08:55:46;99171.44;;;27.44;38.07
62655;BME280;48717;55.556;37.816;2022-07-22T08:58:15;99154.03;;;27.02;38.17
62655;BME280;48717;55.556;37.816;2022-07-22T09:00:42;99190.41;;;27.21;38.57
62655;BME280;48717;55.556;37.816;2022-07-22T09:03:21;99183.31;;;26.97;38.44
62655;BME280;48717;55.556;37.816;2022-07-22T09:05:52;99178.41;;;27.14;38.91
62655;BME280;48717;55.556;37.816;2022-07-22T09:08:21;99183.25;;;27.43;38.29
62655;BME280;48717;55.556;37.816;2022-07-22T09:10:59;99193.56;;;27.72;37.94
62655;BME280;48717;55.556;37.816;2022-07-22T09:13:59;99184.81;;;28.01;37.56
62655;BME280;48717;55.556;37.816;2022-07-22T09:16:48;99175.16;;;28.20;37.66
62655;BME280;48717;55.556;37.816;2022-07-22T09:19:41;99166.97;;;28.31;36.47
62655;BME280;48717;55.556;37.816;2022-07-22T09:22:35;99206.63;;;28.32;36.63
62655;BME280;48717;55.556;37.816;2022-07-22T09:28:15;99208.06;;;27.82;38.40
62655;BME280;48717;55.556;37.816;2022-07-22T09:31:03;99189.31;;;27.23;38.81
62655;BME280;48717;55.556;37.816;2022-07-22T09:33:36;99204.19;;;26.83;39.66
62655;BME280;48717;55.556;37.816;2022-07-22T09:36:18;99210.78;;;26.68;40.28
62655;BME280;48717;55.556;37.816;2022-07-22T09:38:48;99218.88;;;26.68;40.77
62655;BME280;48717;55.556;37.816;2022-07-22T09:41:16;99170.03;;;27.05;40.07
62655;BME280;48717;55.556;37.816;2022-07-22T09:43:44;99181.50;;;27.76;38.39
62655;BME280;48717;55.556;37.816;2022-07-22T09:46:12;99206.34;;;28.47;37.60
62655;BME280;48717;55.556;37.816;2022-07-22T09:49:05;99174.16;;;29.26;35.99
62655;BME280;48717;55.556;37.816;2022-07-22T09:51:42;99198.59;;;29.77;34.55
62655;BME280;48717;55.556;37.816;2022-07-22T09:54:18;99192.88;;;29.70;34.17
62655;BME280;48717;55.556;37.816;2022-07-22T09:56:46;99165.03;;;29.27;34.38
62655;BME280;48717;55.556;37.816;2022-07-22T09:59:16;99192.94;;;29.39;34.89
62655;BME280;48717;55.556;37.816;2022-07-22T10:02:03;99188.25;;;29.00;34.25
62655;BME280;48717;55.556;37.816;2022-07-22T10:04:33;99199.81;;;29.43;34.18
62655;BME280;48717;55.556;37.816;2022-07-22T10:07:02;99184.75;;;29.80;33.16
62655;BME280;48717;55.556;37.816;2022-07-22T10:09:35;99200.78;;;30.42;32.78
62655;BME280;48717;55.556;37.816;2022-07-22T10:12:06;99197.88;;;30.73;32.62
62655;BME280;48717;55.556;37.816;2022-07-22T10:14:35;99187.63;;;31.33;31.12
62655;BME280;48717;55.556;37.816;2022-07-22T10:17:04;99187.63;;;31.80;30.70
62655;BME280;48717;55.556;37.816;2022-07-22T10:19:34;99182.69;;;31.65;30.63
62655;BME280;48717;55.556;37.816;2022-07-22T10:22:02;99203.53;;;30.90;30.96
62655;BME280;48717;55.556;37.816;2022-07-22T10:24:29;99201.09;;;30.19;32.00
62655;BME280;48717;55.556;37.816;2022-07-22T10:26:59;99210.44;;;29.56;33.14
62655;BME280;48717;55.556;37.816;2022-07-22T10:29:40;99211.16;;;28.64;35.19
62655;BME280;48717;55.556;37.816;2022-07-22T10:40:11;99199.22;;;26.77;37.62
62655;BME280;48717;55.556;37.816;2022-07-22T10:45:38;99214.19;;;26.47;37.57
62655;BME280;48717;55.556;37.816;2022-07-22T10:48:14;99212.06;;;26.15;38.09
62655;BME280;48717;55.556;37.816;2022-07-22T10:50:44;99225.47;;;25.92;38.18
62655;BME280;48717;55.556;37.816;2022-07-22T10:53:15;99226.28;;;26.05;38.13
62655;BME280;48717;55.556;37.816;2022-07-22T11:01:15;99209.28;;;29.58;32.61
62655;BME280;48717;55.556;37.816;2022-07-22T11:03:45;99221.25;;;30.37;31.49
62655;BME280;48717;55.556;37.816;2022-07-22T11:06:24;99219.13;;;30.20;30.87
62655;BME280;48717;55.556;37.816;2022-07-22T11:08:56;99213.59;;;29.71;32.18
62655;BME280;48717;55.556;37.816;2022-07-22T11:11:39;99183.88;;;29.99;31.22
62655;BME280;48717;55.556;37.816;2022-07-22T11:16:44;99195.09;;;32.50;28.53
62655;BME280;48717;55.556;37.816;2022-07-22T11:19:11;99186.94;;;32.59;27.77
62655;BME280;48717;55.556;37.816;2022-07-22T11:21:39;99199.50;;;32.07;27.82
62655;BME280;48717;55.556;37.816;2022-07-22T11:24:11;99209.88;;;30.81;29.17
62655;BME280;48717;55.556;37.816;2022-07-22T11:26:50;99206.47;;;29.90;30.91
62655;BME280;48717;55.556;37.816;2022-07-22T11:31:51;99183.06;;;28.11;33.69
62655;BME280;48717;55.556;37.816;2022-07-22T11:34:18;99208.63;;;27.19;36.14
62655;BME280;48717;55.556;37.816;2022-07-22T11:36:47;99215.97;;;26.94;36.89
62655;BME280;48717;55.556;37.816;2022-07-22T11:39:20;99186.16;;;26.37;37.71
62655;BME280;48717;55.556;37.816;2022-07-22T11:41:48;99205.66;;;26.29;38.14
62655;BME280;48717;55.556;37.816;2022-07-22T11:44:23;99217.72;;;26.12;39.04
62655;BME280;48717;55.556;37.816;2022-07-22T11:46:50;99217.66;;;26.00;38.95
62655;BME280;48717;55.556;37.816;2022-07-22T11:49:20;99194.78;;;25.68;39.75
62655;BME280;48717;55.556;37.816;2022-07-22T11:51:47;99215.72;;;26.02;39.60
62655;BME280;48717;55.556;37.816;2022-07-22T11:54:15;99194.66;;;26.55;38.35
62655;BME280;48717;55.556;37.816;2022-07-22T11:56:42;99187.72;;;28.21;35.61
62655;BME280;48717;55.556;37.816;2022-07-22T11:59:13;99215.94;;;30.05;32.92
62655;BME280;48717;55.556;37.816;2022-07-22T12:01:41;99195.09;;;31.77;30.65
62655;BME280;48717;55.556;37.816;2022-07-22T12:04:10;99201.06;;;32.80;27.66
62655;BME280;48717;55.556;37.816;2022-07-22T12:06:40;99168.06;;;34.03;26.01
62655;BME280;48717;55.556;37.816;2022-07-22T12:09:16;99180.41;;;35.14;23.67
62655;BME280;48717;55.556;37.816;2022-07-22T12:11:45;99166.19;;;35.82;23.26
62655;BME280;48717;55.556;37.816;2022-07-22T12:14:33;99193.09;;;35.07;23.97
62655;BME280;48717;55.556;37.816;2022-07-22T12:17:09;99188.16;;;33.69;25.28
62655;BME280;48717;55.556;37.816;2022-07-22T12:19:40;99183.13;;;31.88;27.99
62655;BME280;48717;55.556;37.816;2022-07-22T12:22:09;99169.22;;;30.69;29.84
62655;BME280;48717;55.556;37.816;2022-07-22T12:24:43;99214.09;;;30.16;31.44
62655;BME280;48717;55.556;37.816;2022-07-22T12:27:13;99187.53;;;29.49;32.41
62655;BME280;48717;55.556;37.816;2022-07-22T12:29:41;99202.25;;;28.84;34.21
62655;BME280;48717;55.556;37.816;2022-07-22T12:32:10;99201.97;;;28.23;34.59
62655;BME280;48717;55.556;37.816;2022-07-22T12:34:43;99204.50;;;27.59;34.70
62655;BME280;48717;55.556;37.816;2022-07-22T12:37:19;99219.34;;;27.09;36.23
62655;BME280;48717;55.556;37.816;2022-07-22T12:42:44;99221.53;;;26.45;38.15
62655;BME280;48717;55.556;37.816;2022-07-22T12:45:16;99229.09;;;26.28;38.55
62655;BME280;48717;55.556;37.816;2022-07-22T12:55:50;99197.97;;;31.76;29.15
62655;BME280;48717;55.556;37.816;2022-07-22T12:58:19;99204.59;;;32.10;28.23
62655;BME280;48717;55.556;37.816;2022-07-22T13:00:51;99201.47;;;31.68;28.95
62655;BME280;48717;55.556;37.816;2022-07-22T13:03:19;99165.50;;;30.80;29.64
62655;BME280;48717;55.556;37.816;2022-07-22T13:05:52;99191.25;;;30.86;30.54
62655;BME280;48717;55.556;37.816;2022-07-22T13:08:20;99194.66;;;30.98;29.50
62655;BME280;48717;55.556;37.816;2022-07-22T13:10:49;99201.88;;;30.59;28.97
62655;BME280;48717;55.556;37.816;2022-07-22T13:13:17;99184.28;;;29.14;31.26
62655;BME280;48717;55.556;37.816;2022-07-22T13:15:45;99177.81;;;28.31;32.35
62655;BME280;48717;55.556;37.816;2022-07-22T13:18:12;99213.34;;;28.17;33.32
62655;BME280;48717;55.556;37.816;2022-07-22T13:20:40;99203.63;;;27.81;34.05
62655;BME280;48717;55.556;37.816;2022-07-22T13:23:07;99206.88;;;27.63;35.00
62655;BME280;48717;55.556;37.816;2022-07-22T13:25:35;99202.44;;;27.51;35.16
62655;BME280;48717;55.556;37.816;2022-07-22T13:28:02;99193.00;;;27.22;35.80
62655;BME280;48717;55.556;37.816;2022-07-22T13:30:30;99208.63;;;27.19;36.26
62655;BME280;48717;55.556;37.816;2022-07-22T13:32:57;99194.84;;;26.88;36.45
62655;BME280;48717;55.556;37.816;2022-07-22T13:35:24;99212.53;;;26.92;36.69
62655;BME280;48717;55.556;37.816;2022-07-22T13:37:52;99203.25;;;26.96;36.87
62655;BME280;48717;55.556;37.816;2022-07-22T13:40:19;99197.09;;;27.05;36.43
62655;BME280;48717;55.556;37.816;2022-07-22T13:42:46;99198.56;;;27.09;37.02
62655;BME280;48717;55.556;37.816;2022-07-22T13:45:13;99197.81;;;27.07;37.86